Time;durP1;ratioP1;P1;durP2;ratioP2;P2;SDS_P1;SDS_P2;PMS_P1;PMS_P2;Temp;Humidity;BMP_temperature;BMP_pressure;BME280_temperature;BME280_humidity;BME280_pressure;Samples;Min_cycle;Max_cycle;Signal;HPM_P1;HPM_P2
2023/09/02 00:00:24;;;;;;;;;;;;;;;;;;7368961;19;1695;-69
2023/09/02 00:02:52;;;;;;;;;;;;;;;;;;7370326;19;1652;-69
2023/09/02 00:05:20;;;;;;;;;;;;;;;;;;7368534;19;1625;-69
2023/09/02 00:07:48;;;;;;;;;;;;;;;;;;7367849;19;1645;-69
2023/09/02 00:10:16;;;;;;;;;;;;;;;;;;7368408;19;785;-69
2023/09/02 00:12:45;;;;;;;;;;;;;;;;;;7365968;19;1856;-69
2023/09/02 00:15:13;;;;;;;;;;;;;;;;;;7368001;19;830;-69
2023/09/02 00:17:41;;;;;;;;;;;;;;;;;;7366154;19;1518;-71
2023/09/02 00:20:10;;;;;;;;;;;;;;;;;;7365840;19;833;-70
2023/09/02 00:22:38;;;;;;;;;;;;;;;;;;7370417;19;1614;-70
2023/09/02 00:25:06;;;;;;;;;;;;;;;;;;7367814;19;775;-69
2023/09/02 00:27:34;;;;;;;;;;;;;;;;;;7366195;19;1299;-70
2023/09/02 00:30:03;;;;;;;;;;;;;;;;;;7365935;19;865;-69
2023/09/02 00:32:31;;;;;;;;;;;;;;;;;;7364991;19;1859;-69
2023/09/02 00:34:59;;;;;;;;;;;;;;;;;;7366117;19;1785;-69
2023/09/02 00:37:27;;;;;;;;;;;;;;;;;;7366375;19;1870;-69
2023/09/02 00:39:55;;;;;;;;;;;;;;;;;;7365707;19;1883;-70
2023/09/02 00:42:23;;;;;;;;;;;;;;;;;;7368857;19;1698;-70
2023/09/02 00:44:51;;;;;;;;;;;;;;;;;;7367229;19;1673;-70
2023/09/02 00:47:19;;;;;;;;;;;;;;;;;;7365331;19;2123;-70
2023/09/02 00:49:48;;;;;;;;;;;;;;;;;;7363922;19;1885;-69
2023/09/02 00:52:16;;;;;;;;;;;;;;;;;;7367386;19;1845;-71
2023/09/02 00:54:44;;;;;;;;;;;;;;;;;;7364700;19;1747;-72
2023/09/02 00:57:12;;;;;;;;;;;;;;;;;;7365412;19;1695;-71
2023/09/02 00:59:40;;;;;;;;;;;;;;;;;;7367439;19;1751;-70
2023/09/02 01:02:08;;;;;;;;;;;;;;;;;;7367955;19;1803;-69
2023/09/02 01:04:37;;;;;;;;;;;;;;;;;;7366868;19;1774;-70
2023/09/02 01:07:05;;;;;;;;;;;;;;;;;;7366665;19;1908;-71
2023/09/02 01:09:33;;;;;;;;;;;;;;;;;;7367052;19;1800;-70
2023/09/02 01:12:01;;;;;;;;;;;;;;;;;;7363674;19;1871;-71
2023/09/02 01:14:29;;;;;;;;;;;;;;;;;;7366948;19;1904;-70
2023/09/02 01:16:58;;;;;;;;;;;;;;;;;;7365137;19;1868;-71
2023/09/02 01:19:26;;;;;;;;;;;;;;;;;;7364037;19;1930;-71
2023/09/02 01:21:54;;;;;;;;;;;;;;;;;;7365833;19;1939;-71
2023/09/02 01:24:23;;;;;;;;;;;;;;;;;;7366776;19;1575;-70
2023/09/02 01:26:51;;;;;;;;;;;;;;;;;;7365165;19;1711;-70
2023/09/02 01:29:19;;;;;;;;;;;;;;;;;;7364144;19;1995;-70
2023/09/02 01:31:47;;;;;;;;;;;;;;;;;;7366048;19;2085;-72
2023/09/02 01:34:15;;;;;;;;;;;;;;;;;;7364842;19;1980;-71
2023/09/02 01:36:46;;;;;;;;;;;;;;;;;;7363349;19;1725;-71
2023/09/02 01:39:14;;;;;;;;;;;;;;;;;;7356333;19;1992;-72
2023/09/02 01:41:43;;;;;;;;;;;;;;;;;;7366515;19;2125;-70
2023/09/02 01:44:11;;;;;;;;;;;;;;;;;;7362632;19;2032;-71
2023/09/02 01:46:39;;;;;;;;;;;;;;;;;;7364665;19;1753;-71
2023/09/02 01:49:09;;;;;;;;;;;;;;;;;;7360867;19;1837;-71
2023/09/02 01:51:37;;;;;;;;;;;;;;;;;;7366734;19;1881;-71
2023/09/02 01:54:05;;;;;;;;;;;;;;;;;;7368702;19;1896;-71
2023/09/02 01:56:33;;;;;;;;;;;;;;;;;;7372475;19;1755;-72
2023/09/02 01:59:01;;;;;;;;;;;;;;;;;;7370002;19;1903;-72
2023/09/02 02:01:29;;;;;;;;;;;;;;;;;;7372649;19;2006;-71
2023/09/02 02:03:58;;;;;;;;;;;;;;;;;;7373571;19;1190;-71
2023/09/02 02:06:26;;;;;;;;;;;;;;;;;;7370072;19;1843;-71
2023/09/02 02:08:54;;;;;;;;;;;;;;;;;;7371987;19;2133;-71
2023/09/02 02:11:22;;;;;;;;;;;;;;;;;;7372806;19;1809;-73
2023/09/02 02:13:52;;;;;;;;;;;;;;;;;;7372320;19;1858;-72
2023/09/02 02:16:22;;;;;;;;;;;;;;;;;;7369786;19;1352;-72
2023/09/02 02:18:51;;;;;;;;;;;;;;;;;;7371174;19;1526;-72
2023/09/02 02:21:19;;;;;;;;;;;;;;;;;;7370193;19;861;-71
2023/09/02 02:23:47;;;;;;;;;;;;;;;;;;7368106;19;1989;-71
2023/09/02 02:26:15;;;;;;;;;;;;;;;;;;7370232;19;1923;-72
2023/09/02 02:28:43;;;;;;;;;;;;;;;;;;7373212;19;1468;-72
2023/09/02 02:31:12;;;;;;;;;;;;;;;;;;7369717;19;825;-72
2023/09/02 02:33:40;;;;;;;;;;;;;;;;;;7369585;19;1841;-72
2023/09/02 02:36:09;;;;;;;;;;;;;;;;;;7371419;19;1946;-72
2023/09/02 02:38:37;;;;;;;;;;;;;;;;;;7370597;19;2096;-73
2023/09/02 02:41:05;;;;;;;;;;;;;;;;;;7371014;19;2047;-73
2023/09/02 02:43:33;;;;;;;;;;;;;;;;;;7371479;19;1678;-72
2023/09/02 02:46:02;;;;;;;;;;;;;;;;;;7370229;19;2101;-72
2023/09/02 02:48:30;;;;;;;;;;;;;;;;;;7369829;19;1843;-73
2023/09/02 02:50:58;;;;;;;;;;;;;;;;;;7371769;19;1957;-71
2023/09/02 02:53:27;;;;;;;;;;;;;;;;;;7370515;19;1850;-72
2023/09/02 02:56:02;;;;;;;;;;;;;;;;;;7368667;19;1731;-72
2023/09/02 02:58:31;;;;;;;;;;;;;;;;;;7370820;19;1770;-72
2023/09/02 03:00:59;;;;;;;;;;;;;;;;;;7371120;19;1675;-72
2023/09/02 03:03:27;;;;;;;;;;;;;;;;;;7367719;19;1709;-72
2023/09/02 03:05:55;;;;;;;;;;;;;;;;;;7369332;19;1758;-73
2023/09/02 03:08:24;;;;;;;;;;;;;;;;;;7368705;19;1699;-73
2023/09/02 03:10:52;;;;;;;;;;;;;;;;;;7370716;19;1699;-72
2023/09/02 03:13:20;;;;;;;;;;;;;;;;;;7370024;19;1850;-73
2023/09/02 03:15:49;;;;;;;;;;;;;;;;;;7369894;19;1617;-72
2023/09/02 03:18:17;;;;;;;;;;;;;;;;;;7371134;19;1602;-72
2023/09/02 03:20:46;;;;;;;;;;;;;;;;;;7370150;19;1809;-72
2023/09/02 03:23:14;;;;;;;;;;;;;;;;;;7369659;19;1601;-74
2023/09/02 03:25:43;;;;;;;;;;;;;;;;;;7369877;19;1726;-72
2023/09/02 03:28:12;;;;;;;;;;;;;;;;;;7369117;19;1930;-72
2023/09/02 03:30:40;;;;;;;;;;;;;;;;;;7368893;19;1941;-74
2023/09/02 03:33:09;;;;;;;;;;;;;;;;;;7365917;19;1858;-73
2023/09/02 03:35:40;;;;;;;;;;;;;;;;;;7371628;19;1929;-73
2023/09/02 03:38:08;;;;;;;;;;;;;;;;;;7367603;19;1692;-72
2023/09/02 03:40:37;;;;;;;;;;;;;;;;;;7367200;19;2030;-73
2023/09/02 03:43:05;;;;;;;;;;;;;;;;;;7370108;19;1804;-72
2023/09/02 03:45:34;;;;;;;;;;;;;;;;;;7370278;19;1668;-72
2023/09/02 03:48:02;;;;;;;;;;;;;;;;;;7368612;19;1671;-73
2023/09/02 03:50:30;;;;;;;;;;;;;;;;;;7368914;19;1874;-72
2023/09/02 03:52:58;;;;;;;;;;;;;;;;;;7367959;19;1922;-72
2023/09/02 03:55:26;;;;;;;;;;;;;;;;;;7367341;19;1990;-72
2023/09/02 03:57:54;;;;;;;;;;;;;;;;;;7368570;19;1866;-72
2023/09/02 04:00:24;;;;;;;;;;;;;;;;;;7370142;19;1991;-72
2023/09/02 04:02:55;;;;;;;;;;;;;;;;;;7371585;19;1304;-72
2023/09/02 04:05:24;;;;;;;;;;;;;;;;;;7367568;19;1639;-72
2023/09/02 04:07:53;;;;;;;;;;;;;;;;;;7364088;19;834;-73
2023/09/02 04:10:21;;;;;;;;;;;;;;;;;;7369425;19;1982;-73
2023/09/02 04:12:49;;;;;;;;;;;;;;;;;;7371522;19;1857;-73
2023/09/02 04:15:18;;;;;;;;;;;;;;;;;;7365065;19;893;-73
2023/09/02 04:17:46;;;;;;;;;;;;;;;;;;7367024;19;1509;-73
2023/09/02 04:20:15;;;;;;;;;;;;;;;;;;7364949;19;820;-74
2023/09/02 04:22:43;;;;;;;;;;;;;;;;;;7366026;19;854;-72
2023/09/02 04:25:12;;;;;;;;;;;;;;;;;;7367957;19;1935;-72
2023/09/02 04:27:41;;;;;;;;;;;;;;;;;;7367226;19;1428;-72
2023/09/02 04:30:10;;;;;;;;;;;;;;;;;;7364688;19;936;-71
2023/09/02 04:32:38;;;;;;;;;;;;;;;;;;7364172;19;1752;-73
2023/09/02 04:35:06;;;;;;;;;;;;;;;;;;7364028;19;1857;-74
2023/09/02 04:37:35;;;;;;;;;;;;;;;;;;7365708;19;1740;-71
2023/09/02 04:40:07;;;;;;;;;;;;;;;;;;7367104;19;1762;-72
2023/09/02 04:42:35;;;;;;;;;;;;;;;;;;7368390;19;1655;-72
2023/09/02 04:45:03;;;;;;;;;;;;;;;;;;7369087;19;1876;-72
2023/09/02 04:47:33;;;;;;;;;;;;;;;;;;7364878;19;1631;-72
2023/09/02 04:50:02;;;;;;;;;;;;;;;;;;7367028;19;1768;-72
2023/09/02 04:52:30;;;;;;;;;;;;;;;;;;7366356;19;1687;-73
2023/09/02 04:54:58;;;;;;;;;;;;;;;;;;7366165;19;1849;-74
2023/09/02 04:57:26;;;;;;;;;;;;;;;;;;7365435;19;1634;-73
2023/09/02 04:59:55;;;;;;;;;;;;;;;;;;7366476;19;2057;-74
2023/09/02 05:02:23;;;;;;;;;;;;;;;;;;7367284;19;1824;-74
2023/09/02 05:04:51;;;;;;;;;;;;;;;;;;7365727;19;1964;-74
2023/09/02 05:07:19;;;;;;;;;;;;;;;;;;7363811;19;1797;-74
2023/09/02 05:09:48;;;;;;;;;;;;;;;;;;7367335;19;1859;-73
2023/09/02 05:12:16;;;;;;;;;;;;;;;;;;7368293;19;1948;-73
2023/09/02 05:14:44;;;;;;;;;;;;;;;;;;7365468;19;1869;-73
2023/09/02 05:17:12;;;;;;;;;;;;;;;;;;7366400;19;2156;-73
2023/09/02 05:19:41;;;;;;;;;;;;;;;;;;7367932;19;1600;-72
2023/09/02 05:22:09;;;;;;;;;;;;;;;;;;7366020;19;1609;-72
2023/09/02 05:24:37;;;;;;;;;;;;;;;;;;7368879;19;1667;-73
2023/09/02 05:27:06;;;;;;;;;;;;;;;;;;7363993;19;1582;-73
2023/09/02 05:29:34;;;;;;;;;;;;;;;;;;7365829;19;1704;-72
2023/09/02 05:32:02;;;;;;;;;;;;;;;;;;7367496;19;1594;-72
2023/09/02 05:34:30;;;;;;;;;;;;;;;;;;7365121;19;1838;-72
2023/09/02 05:36:59;;;;;;;;;;;;;;;;;;7366475;19;1737;-73
2023/09/02 05:39:27;;;;;;;;;;;;;;;;;;7366109;19;1742;-73
2023/09/02 05:41:56;;;;;;;;;;;;;;;;;;7367719;19;1676;-72
2023/09/02 05:44:24;;;;;;;;;;;;;;;;;;7366962;19;1702;-73
2023/09/02 05:46:52;;;;;;;;;;;;;;;;;;7365419;19;1817;-73
2023/09/02 05:49:20;;;;;;;;;;;;;;;;;;7364288;19;1807;-73
2023/09/02 05:51:48;;;;;;;;;;;;;;;;;;7366263;19;1773;-73
2023/09/02 05:54:16;;;;;;;;;;;;;;;;;;7363278;19;1846;-73
2023/09/02 05:56:44;;;;;;;;;;;;;;;;;;7365151;19;1533;-73
2023/09/02 05:59:13;;;;;;;;;;;;;;;;;;7365061;19;1812;-72
2023/09/02 06:01:42;;;;;;;;;;;;;;;;;;7367994;19;1538;-73
2023/09/02 06:04:11;;;;;;;;;;;;;;;;;;7363917;19;1031;-73
2023/09/02 06:06:39;;;;;;;;;;;;;;;;;;7366559;19;1733;-72
2023/09/02 06:09:07;;;;;;;;;;;;;;;;;;7365391;19;1657;-77
2023/09/02 06:11:35;;;;;;;;;;;;;;;;;;7363431;19;807;-72
2023/09/02 06:14:03;;;;;;;;;;;;;;;;;;7362953;19;1839;-73
2023/09/02 06:16:31;;;;;;;;;;;;;;;;;;7362575;19;1353;-72
2023/09/02 06:19:00;;;;;;;;;;;;;;;;;;7367709;19;1508;-72
2023/09/02 06:21:28;;;;;;;;;;;;;;;;;;7365630;19;1711;-72
2023/09/02 06:23:56;;;;;;;;;;;;;;;;;;7367983;19;1658;-73
2023/09/02 06:26:25;;;;;;;;;;;;;;;;;;7363367;19;1297;-72
2023/09/02 06:28:53;;;;;;;;;;;;;;;;;;7361619;19;875;-72
2023/09/02 06:31:21;;;;;;;;;;;;;;;;;;7366325;19;1703;-72
2023/09/02 06:33:49;;;;;;;;;;;;;;;;;;7366738;19;1859;-72
2023/09/02 06:36:19;;;;;;;;;;;;;;;;;;7369145;19;2028;-72
2023/09/02 06:38:48;;;;;;;;;;;;;;;;;;7370850;19;1851;-72
2023/09/02 06:41:16;;;;;;;;;;;;;;;;;;7370057;19;1849;-72
2023/09/02 06:43:44;;;;;;;;;;;;;;;;;;7373455;19;1847;-72
2023/09/02 06:46:12;;;;;;;;;;;;;;;;;;7371659;19;1742;-72
2023/09/02 06:48:40;;;;;;;;;;;;;;;;;;7371572;19;1746;-72
2023/09/02 06:51:08;;;;;;;;;;;;;;;;;;7371887;19;1677;-71
2023/09/02 06:53:37;;;;;;;;;;;;;;;;;;7372290;19;1849;-72
2023/09/02 06:56:05;;;;;;;;;;;;;;;;;;7368383;19;1908;-72
2023/09/02 06:58:33;;;;;;;;;;;;;;;;;;7369199;19;1761;-72
2023/09/02 07:01:01;;;;;;;;;;;;;;;;;;7373506;19;1635;-72
2023/09/02 07:03:30;;;;;;;;;;;;;;;;;;7370580;19;1717;-72
2023/09/02 07:05:58;;;;;;;;;;;;;;;;;;7370853;19;1933;-72
2023/09/02 07:08:26;;;;;;;;;;;;;;;;;;7370353;19;1766;-72
2023/09/02 07:10:54;;;;;;;;;;;;;;;;;;7372189;19;1463;-71
2023/09/02 07:13:22;;;;;;;;;;;;;;;;;;7371221;19;1781;-73
2023/09/02 07:15:51;;;;;;;;;;;;;;;;;;7371561;19;1842;-72
2023/09/02 07:18:19;;;;;;;;;;;;;;;;;;7370753;19;1761;-72
2023/09/02 07:20:47;;;;;;;;;;;;;;;;;;7370361;19;1667;-73
2023/09/02 07:23:15;;;;;;;;;;;;;;;;;;7369072;19;2149;-72
2023/09/02 07:25:43;;;;;;;;;;;;;;;;;;7370908;19;1846;-73
2023/09/02 07:28:11;;;;;;;;;;;;;;;;;;7371179;19;1744;-73
2023/09/02 07:30:39;;;;;;;;;;;;;;;;;;7369589;19;1935;-75
2023/09/02 07:33:08;;;;;;;;;;;;;;;;;;7369097;19;2022;-74
2023/09/02 07:35:37;;;;;;;;;;;;;;;;;;7369496;19;1846;-75
2023/09/02 07:38:06;;;;;;;;;;;;;;;;;;7367558;19;1917;-74
2023/09/02 07:40:34;;;;;;;;;;;;;;;;;;7372088;19;1885;-74
2023/09/02 07:43:02;;;;;;;;;;;;;;;;;;7373014;19;1594;-74
2023/09/02 07:45:30;;;;;;;;;;;;;;;;;;7368539;19;1734;-76
2023/09/02 07:47:58;;;;;;;;;;;;;;;;;;7373935;19;1750;-76
2023/09/02 07:50:26;;;;;;;;;;;;;;;;;;7368350;19;1701;-75
2023/09/02 07:52:54;;;;;;;;;;;;;;;;;;7368966;19;2042;-74
2023/09/02 07:55:23;;;;;;;;;;;;;;;;;;7367695;19;1952;-75
2023/09/02 07:57:51;;;;;;;;;;;;;;;;;;7368706;19;1784;-75
2023/09/02 08:00:19;;;;;;;;;;;;;;;;;;7368278;19;1995;-75
2023/09/02 08:02:47;;;;;;;;;;;;;;;;;;7370863;19;1602;-75
2023/09/02 08:05:16;;;;;;;;;;;;;;;;;;7367732;19;816;-75
2023/09/02 08:07:44;;;;;;;;;;;;;;;;;;7365283;19;1282;-72
2023/09/02 08:10:13;;;;;;;;;;;;;;;;;;7366448;19;1821;-72
2023/09/02 08:12:42;;;;;;;;;;;;;;;;;;7371181;19;1477;-72
2023/09/02 08:15:10;;;;;;;;;;;;;;;;;;7363257;19;1880;-72
2023/09/02 08:17:39;;;;;;;;;;;;;;;;;;7364388;19;1337;-72
2023/09/02 08:20:07;;;;;;;;;;;;;;;;;;7365933;19;731;-72
2023/09/02 08:22:36;;;;;;;;;;;;;;;;;;7365552;19;1804;-72
2023/09/02 08:25:04;;;;;;;;;;;;;;;;;;7367579;19;1689;-73
2023/09/02 08:27:32;;;;;;;;;;;;;;;;;;7367113;19;1379;-73
2023/09/02 08:30:01;;;;;;;;;;;;;;;;;;7369131;19;1677;-73
2023/09/02 08:32:29;;;;;;;;;;;;;;;;;;7370909;19;1686;-73
2023/09/02 08:34:57;;;;;;;;;;;;;;;;;;7365771;19;1839;-74
2023/09/02 08:37:25;;;;;;;;;;;;;;;;;;7364310;19;1258;-73
2023/09/02 08:39:53;;;;;;;;;;;;;;;;;;7366608;19;886;-74
2023/09/02 08:42:21;;;;;;;;;;;;;;;;;;7369991;19;1484;-74
2023/09/02 08:44:49;;;;;;;;;;;;;;;;;;7371369;19;1157;-73
2023/09/02 08:47:19;;;;;;;;;;;;;;;;;;7362549;19;1275;-72
2023/09/02 08:49:47;;;;;;;;;;;;;;;;;;7365355;19;837;-72
2023/09/02 08:52:16;;;;;;;;;;;;;;;;;;7369501;19;1919;-73
2023/09/02 08:54:44;;;;;;;;;;;;;;;;;;7370508;19;1833;-74
2023/09/02 08:57:15;;;;;;;;;;;;;;;;;;7366188;19;1282;-73
2023/09/02 08:59:44;;;;;;;;;;;;;;;;;;7368662;19;1574;-74
2023/09/02 09:02:12;;;;;;;;;;;;;;;;;;7365817;19;1483;-74
2023/09/02 09:04:40;;;;;;;;;;;;;;;;;;7366310;19;890;-72
2023/09/02 09:07:08;;;;;;;;;;;;;;;;;;7363295;19;1226;-74
2023/09/02 09:09:36;;;;;;;;;;;;;;;;;;7365169;19;727;-71
2023/09/02 09:12:04;;;;;;;;;;;;;;;;;;7365382;19;1740;-72
2023/09/02 09:14:33;;;;;;;;;;;;;;;;;;7369055;19;1849;-72
2023/09/02 09:17:01;;;;;;;;;;;;;;;;;;7367752;19;1858;-71
2023/09/02 09:19:29;;;;;;;;;;;;;;;;;;7368419;19;1682;-71
2023/09/02 09:21:57;;;;;;;;;;;;;;;;;;7364941;19;871;-70
2023/09/02 09:24:27;;;;;;;;;;;;;;;;;;7364615;19;808;-71
2023/09/02 09:26:55;;;;;;;;;;;;;;;;;;7363673;19;1316;-72
2023/09/02 09:29:23;;;;;;;;;;;;;;;;;;7364046;19;798;-70
2023/09/02 09:31:51;;;;;;;;;;;;;;;;;;7367712;19;1664;-71
2023/09/02 09:34:20;;;;;;;;;;;;;;;;;;7368512;19;1837;-70
2023/09/02 09:36:48;;;;;;;;;;;;;;;;;;7362007;19;1257;-70
2023/09/02 09:39:16;;;;;;;;;;;;;;;;;;7364120;19;782;-71
2023/09/02 09:41:44;;;;;;;;;;;;;;;;;;7365014;19;813;-71
2023/09/02 09:44:12;;;;;;;;;;;;;;;;;;7365224;19;1007;-71
2023/09/02 09:46:40;;;;;;;;;;;;;;;;;;7360861;19;2084;-72
2023/09/02 09:49:08;;;;;;;;;;;;;;;;;;7366145;19;1760;-71
2023/09/02 09:51:36;;;;;;;;;;;;;;;;;;7367650;19;1632;-71
2023/09/02 09:54:06;;;;;;;;;;;;;;;;;;7362266;19;863;-71
2023/09/02 09:56:34;;;;;;;;;;;;;;;;;;7361420;19;1858;-71
2023/09/02 09:59:02;;;;;;;;;;;;;;;;;;7366333;19;1657;-70
2023/09/02 10:01:30;;;;;;;;;;;;;;;;;;7365000;19;1879;-69
2023/09/02 10:03:58;;;;;;;;;;;;;;;;;;7368079;19;1755;-69
2023/09/02 10:06:26;;;;;;;;;;;;;;;;;;7362879;19;1247;-69
2023/09/02 10:08:56;;;;;;;;;;;;;;;;;;7363509;19;1664;-71
2023/09/02 10:11:26;;;;;;;;;;;;;;;;;;7366463;19;1666;-71
2023/09/02 10:13:54;;;;;;;;;;;;;;;;;;7374606;19;1468;-71
2023/09/02 10:16:24;;;;;;;;;;;;;;;;;;7369868;19;1841;-70
2023/09/02 10:18:52;;;;;;;;;;;;;;;;;;7371509;19;689;-70
2023/09/02 10:21:21;;;;;;;;;;;;;;;;;;7369725;19;826;-70
2023/09/02 10:23:49;;;;;;;;;;;;;;;;;;7371669;19;2062;-69
2023/09/02 10:26:17;;;;;;;;;;;;;;;;;;7372456;19;2079;-70
2023/09/02 10:28:45;;;;;;;;;;;;;;;;;;7372940;19;1450;-70
2023/09/02 10:31:13;;;;;;;;;;;;;;;;;;7369732;19;868;-70
2023/09/02 10:33:43;;;;;;;;;;;;;;;;;;7373189;19;2066;-70
2023/09/02 10:36:11;;;;;;;;;;;;;;;;;;7370239;19;1866;-70
2023/09/02 10:38:39;;;;;;;;;;;;;;;;;;7373008;19;1747;-70
2023/09/02 10:41:07;;;;;;;;;;;;;;;;;;7369434;19;1855;-70
2023/09/02 10:43:35;;;;;;;;;;;;;;;;;;7369983;19;2050;-70
2023/09/02 10:46:03;;;;;;;;;;;;;;;;;;7372206;19;1664;-70
2023/09/02 10:48:32;;;;;;;;;;;;;;;;;;7372121;19;1177;-70
2023/09/02 10:51:00;;;;;;;;;;;;;;;;;;7369679;19;833;-70
2023/09/02 10:53:28;;;;;;;;;;;;;;;;;;7369678;19;791;-70
2023/09/02 10:55:56;;;;;;;;;;;;;;;;;;7368808;19;1853;-70
2023/09/02 10:58:24;;;;;;;;;;;;;;;;;;7368673;19;1718;-70
2023/09/02 11:00:52;;;;;;;;;;;;;;;;;;7372336;19;1636;-70
2023/09/02 11:03:20;;;;;;;;;;;;;;;;;;7372394;19;1479;-71
2023/09/02 11:05:49;;;;;;;;;;;;;;;;;;7368410;19;1240;-71
2023/09/02 11:08:17;;;;;;;;;;;;;;;;;;7367963;19;809;-71
2023/09/02 11:10:45;;;;;;;;;;;;;;;;;;7369259;19;818;-71
2023/09/02 11:13:13;;;;;;;;;;;;;;;;;;7370249;19;1630;-70
2023/09/02 11:15:41;;;;;;;;;;;;;;;;;;7371892;19;1853;-71
2023/09/02 11:18:09;;;;;;;;;;;;;;;;;;7368756;19;825;-70
2023/09/02 11:20:38;;;;;;;;;;;;;;;;;;7368018;19;746;-71
2023/09/02 11:23:07;;;;;;;;;;;;;;;;;;7368991;19;805;-71
2023/09/02 11:25:33;;;;;;;;;;;;;;;;;;7366570;19;1359;-71
2023/09/02 11:28:01;;;;;;;;;;;;;;;;;;7368667;19;2024;-71
2023/09/02 11:30:29;;;;;;;;;;;;;;;;;;7371987;19;1383;-71
2023/09/02 11:32:58;;;;;;;;;;;;;;;;;;7368417;19;817;-71
2023/09/02 11:35:26;;;;;;;;;;;;;;;;;;7367326;19;1833;-69
2023/09/02 11:37:54;;;;;;;;;;;;;;;;;;7363012;19;1585;-71
2023/09/02 11:40:22;;;;;;;;;;;;;;;;;;7366015;19;1881;-71
2023/09/02 11:42:50;;;;;;;;;;;;;;;;;;7371906;19;1539;-71
2023/09/02 11:45:18;;;;;;;;;;;;;;;;;;7368101;19;1757;-71
2023/09/02 11:47:47;;;;;;;;;;;;;;;;;;7368994;19;1580;-71
2023/09/02 11:50:15;;;;;;;;;;;;;;;;;;7366411;19;1915;-72
2023/09/02 11:52:43;;;;;;;;;;;;;;;;;;7371306;19;1623;-71
2023/09/02 11:55:11;;;;;;;;;;;;;;;;;;7367306;19;1837;-71
2023/09/02 11:57:39;;;;;;;;;;;;;;;;;;7364193;19;1974;-69
2023/09/02 12:00:08;;;;;;;;;;;;;;;;;;7368077;19;2058;-70
2023/09/02 12:02:36;;;;;;;;;;;;;;;;;;7371210;19;1402;-69
2023/09/02 12:05:05;;;;;;;;;;;;;;;;;;7367589;19;828;-70
2023/09/02 12:07:33;;;;;;;;;;;;;;;;;;7364652;19;1704;-69
2023/09/02 12:10:01;;;;;;;;;;;;;;;;;;7365713;19;1986;-70
2023/09/02 12:12:29;;;;;;;;;;;;;;;;;;7370880;19;2200;-69
2023/09/02 12:14:57;;;;;;;;;;;;;;;;;;7363495;19;2015;-69
2023/09/02 12:17:25;;;;;;;;;;;;;;;;;;7365331;19;2095;-69
2023/09/02 12:19:53;;;;;;;;;;;;;;;;;;7366626;19;1828;-69
2023/09/02 12:22:22;;;;;;;;;;;;;;;;;;7368177;19;1716;-69
2023/09/02 12:24:50;;;;;;;;;;;;;;;;;;7367615;19;1776;-69
2023/09/02 12:27:18;;;;;;;;;;;;;;;;;;7366376;19;1582;-69
2023/09/02 12:29:46;;;;;;;;;;;;;;;;;;7371240;19;1477;-69
2023/09/02 12:32:14;;;;;;;;;;;;;;;;;;7366470;19;833;-69
2023/09/02 12:34:42;;;;;;;;;;;;;;;;;;7367749;19;2154;-69
2023/09/02 12:37:11;;;;;;;;;;;;;;;;;;7367339;19;1842;-70
2023/09/02 12:39:39;;;;;;;;;;;;;;;;;;7367859;19;1825;-69
2023/09/02 12:42:07;;;;;;;;;;;;;;;;;;7371103;19;1634;-69
2023/09/02 12:44:35;;;;;;;;;;;;;;;;;;7365749;19;2098;-69
2023/09/02 12:47:03;;;;;;;;;;;;;;;;;;7366935;19;1981;-70
2023/09/02 12:49:31;;;;;;;;;;;;;;;;;;7372164;19;1626;-69
2023/09/02 12:52:00;;;;;;;;;;;;;;;;;;7373451;19;1412;-70
2023/09/02 12:54:28;;;;;;;;;;;;;;;;;;7372321;19;2095;-70
2023/09/02 12:56:56;;;;;;;;;;;;;;;;;;7368611;19;1867;-70
2023/09/02 12:59:24;;;;;;;;;;;;;;;;;;7369695;19;1582;-70
2023/09/02 13:01:52;;;;;;;;;;;;;;;;;;7371666;19;1878;-70
2023/09/02 13:04:21;;;;;;;;;;;;;;;;;;7371276;19;1585;-70
2023/09/02 13:06:49;;;;;;;;;;;;;;;;;;7369510;19;1857;-70
2023/09/02 13:09:17;;;;;;;;;;;;;;;;;;7367557;19;818;-70
2023/09/02 13:11:45;;;;;;;;;;;;;;;;;;7369240;19;2424;-70
2023/09/02 13:14:15;;;;;;;;;;;;;;;;;;7370070;19;2019;-70
2023/09/02 13:16:43;;;;;;;;;;;;;;;;;;7367159;19;2090;-69
2023/09/02 13:19:12;;;;;;;;;;;;;;;;;;7369002;19;1499;-69
2023/09/02 13:21:41;;;;;;;;;;;;;;;;;;7365907;19;1007;-69
2023/09/02 13:24:09;;;;;;;;;;;;;;;;;;7365385;19;785;-69
2023/09/02 13:26:37;;;;;;;;;;;;;;;;;;7362838;19;1304;-70
2023/09/02 13:29:07;;;;;;;;;;;;;;;;;;7365903;19;2167;-69
2023/09/02 13:31:35;;;;;;;;;;;;;;;;;;7368850;19;1793;-69
2023/09/02 13:34:04;;;;;;;;;;;;;;;;;;7364327;19;785;-69
2023/09/02 13:36:32;;;;;;;;;;;;;;;;;;7363804;19;1858;-69
2023/09/02 13:39:00;;;;;;;;;;;;;;;;;;7364113;19;840;-69
2023/09/02 13:41:28;;;;;;;;;;;;;;;;;;7365184;19;793;-69
2023/09/02 13:43:56;;;;;;;;;;;;;;;;;;7366697;19;1947;-69
2023/09/02 13:46:24;;;;;;;;;;;;;;;;;;7366945;19;2438;-69
2023/09/02 13:48:52;;;;;;;;;;;;;;;;;;7374278;19;1658;-70
2023/09/02 13:51:22;;;;;;;;;;;;;;;;;;7372824;19;826;-69
2023/09/02 13:53:50;;;;;;;;;;;;;;;;;;7373611;19;865;-70
2023/09/02 13:56:18;;;;;;;;;;;;;;;;;;7371696;19;1848;-70
2023/09/02 13:58:50;;;;;;;;;;;;;;;;;;7372508;19;813;-69
2023/09/02 14:01:18;;;;;;;;;;;;;;;;;;7373084;19;1612;-70
2023/09/02 14:03:48;;;;;;;;;;;;;;;;;;7375875;19;1759;-70
2023/09/02 14:06:16;;;;;;;;;;;;;;;;;;7374487;19;1699;-70
2023/09/02 14:08:46;;;;;;;;;;;;;;;;;;7371277;19;805;-69
2023/09/02 14:11:16;;;;;;;;;;;;;;;;;;7371986;19;1710;-69
2023/09/02 14:13:47;;;;;;;;;;;;;;;;;;7370018;19;1955;-69
2023/09/02 14:16:15;;;;;;;;;;;;;;;;;;7367634;19;1954;-69
2023/09/02 14:18:43;;;;;;;;;;;;;;;;;;7372169;19;1845;-69
2023/09/02 14:21:11;;;;;;;;;;;;;;;;;;7372464;19;1859;-68
2023/09/02 14:23:39;;;;;;;;;;;;;;;;;;7372880;19;1917;-68
2023/09/02 14:26:07;;;;;;;;;;;;;;;;;;7372880;19;1742;-69
2023/09/02 14:28:36;;;;;;;;;;;;;;;;;;7370148;19;829;-69
2023/09/02 14:31:05;;;;;;;;;;;;;;;;;;7370640;19;2032;-69
2023/09/02 14:33:33;;;;;;;;;;;;;;;;;;7374423;19;1823;-69
2023/09/02 14:36:04;;;;;;;;;;;;;;;;;;7373386;19;1851;-69
2023/09/02 14:38:33;;;;;;;;;;;;;;;;;;7373552;19;1729;-69
2023/09/02 14:41:01;;;;;;;;;;;;;;;;;;7372833;19;1637;-69
2023/09/02 14:43:29;;;;;;;;;;;;;;;;;;7373057;19;1561;-69
2023/09/02 14:45:57;;;;;;;;;;;;;;;;;;7371080;19;1680;-68
2023/09/02 14:48:25;;;;;;;;;;;;;;;;;;7371557;19;1756;-68
2023/09/02 14:50:55;;;;;;;;;;;;;;;;;;7373362;19;1560;-69
2023/09/02 14:53:23;;;;;;;;;;;;;;;;;;7373201;19;1664;-69
2023/09/02 14:55:51;;;;;;;;;;;;;;;;;;7368473;19;1883;-69
2023/09/02 14:58:20;;;;;;;;;;;;;;;;;;7369731;19;806;-69
2023/09/02 15:00:49;;;;;;;;;;;;;;;;;;7369743;19;768;-69
2023/09/02 15:03:17;;;;;;;;;;;;;;;;;;7369575;19;1739;-69
2023/09/02 15:05:45;;;;;;;;;;;;;;;;;;7367320;19;1985;-69
2023/09/02 15:08:13;;;;;;;;;;;;;;;;;;7371803;19;1663;-69
2023/09/02 15:10:41;;;;;;;;;;;;;;;;;;7372523;19;1651;-68
2023/09/02 15:13:09;;;;;;;;;;;;;;;;;;7373030;19;1862;-69
2023/09/02 15:15:38;;;;;;;;;;;;;;;;;;7371449;19;1844;-69
2023/09/02 15:18:06;;;;;;;;;;;;;;;;;;7367911;19;1853;-69
2023/09/02 15:20:34;;;;;;;;;;;;;;;;;;7371074;19;1992;-69
2023/09/02 15:23:02;;;;;;;;;;;;;;;;;;7374941;19;1840;-69
2023/09/02 15:25:30;;;;;;;;;;;;;;;;;;7369910;19;771;-69
2023/09/02 15:27:58;;;;;;;;;;;;;;;;;;7365958;19;2005;-69
2023/09/02 15:30:26;;;;;;;;;;;;;;;;;;7371088;19;1763;-69
2023/09/02 15:32:55;;;;;;;;;;;;;;;;;;7373372;19;1513;-69
2023/09/02 15:35:23;;;;;;;;;;;;;;;;;;7370170;19;1917;-70
2023/09/02 15:37:51;;;;;;;;;;;;;;;;;;7370405;19;1876;-69
2023/09/02 15:40:19;;;;;;;;;;;;;;;;;;7369070;19;797;-69
2023/09/02 15:42:47;;;;;;;;;;;;;;;;;;7369054;19;812;-70
2023/09/02 15:45:15;;;;;;;;;;;;;;;;;;7368646;19;806;-69
2023/09/02 15:47:44;;;;;;;;;;;;;;;;;;7367337;19;1503;-69
2023/09/02 15:50:12;;;;;;;;;;;;;;;;;;7368801;19;2028;-69
2023/09/02 15:52:40;;;;;;;;;;;;;;;;;;7372813;19;1459;-69
2023/09/02 15:55:08;;;;;;;;;;;;;;;;;;7367671;19;1743;-69
2023/09/02 15:57:36;;;;;;;;;;;;;;;;;;7369457;19;1870;-69
2023/09/02 16:00:04;;;;;;;;;;;;;;;;;;7363799;19;1925;-69
2023/09/02 16:02:40;;;;;;;;;;;;;;;;;;7371360;19;1724;-69
2023/09/02 16:05:08;;;;;;;;;;;;;;;;;;7371734;19;1656;-69
2023/09/02 16:07:36;;;;;;;;;;;;;;;;;;7369843;19;1848;-68
2023/09/02 16:10:04;;;;;;;;;;;;;;;;;;7371046;19;1670;-68
2023/09/02 16:12:33;;;;;;;;;;;;;;;;;;7371714;19;1450;-69
2023/09/02 16:15:01;;;;;;;;;;;;;;;;;;7369263;19;2085;-68
2023/09/02 16:17:29;;;;;;;;;;;;;;;;;;7367092;19;1891;-68
2023/09/02 16:19:57;;;;;;;;;;;;;;;;;;7371584;19;1162;-69
2023/09/02 16:22:27;;;;;;;;;;;;;;;;;;7369367;19;1739;-69
2023/09/02 16:24:55;;;;;;;;;;;;;;;;;;7372424;19;1467;-69
2023/09/02 16:27:23;;;;;;;;;;;;;;;;;;7365229;19;1296;-69
2023/09/02 16:29:51;;;;;;;;;;;;;;;;;;7369499;19;1936;-69
2023/09/02 16:32:20;;;;;;;;;;;;;;;;;;7369791;19;1621;-69
2023/09/02 16:34:48;;;;;;;;;;;;;;;;;;7368572;19;1959;-69
2023/09/02 16:37:16;;;;;;;;;;;;;;;;;;7368894;19;1865;-69
2023/09/02 16:39:44;;;;;;;;;;;;;;;;;;7369391;19;1793;-70
2023/09/02 16:42:12;;;;;;;;;;;;;;;;;;7370873;19;1718;-69
2023/09/02 16:44:41;;;;;;;;;;;;;;;;;;7371688;19;1468;-69
2023/09/02 16:47:09;;;;;;;;;;;;;;;;;;7367445;19;1871;-69
2023/09/02 16:49:37;;;;;;;;;;;;;;;;;;7371269;19;1625;-69
2023/09/02 16:52:05;;;;;;;;;;;;;;;;;;7368200;19;784;-71
2023/09/02 16:54:33;;;;;;;;;;;;;;;;;;7368856;19;873;-69
2023/09/02 16:57:01;;;;;;;;;;;;;;;;;;7366457;19;1868;-69
2023/09/02 16:59:30;;;;;;;;;;;;;;;;;;7367069;19;1800;-69
2023/09/02 17:01:58;;;;;;;;;;;;;;;;;;7370600;19;1624;-69
2023/09/02 17:04:26;;;;;;;;;;;;;;;;;;7368238;19;2094;-68
2023/09/02 17:06:54;;;;;;;;;;;;;;;;;;7368047;19;1765;-68
2023/09/02 17:09:22;;;;;;;;;;;;;;;;;;7367629;19;2048;-69
2023/09/02 17:11:50;;;;;;;;;;;;;;;;;;7370475;19;1498;-69